Nyk Deneb — 3EOF8 — position and weather

sailwx.info

Track history (hours):
 
Tides and Currents Weather Stations Pressure Air Temp Water Temp Dewpoint Dewpoint Depression Visibility Wind Speed Wind Dir Waves Ship Positions

Nyk Deneb

Last reported at 2015-May-17 16:25 UTC. Time now 2015-May-28 18:05 UTC.
Position N 33°24' E 128°21'.
Warning: this ship's position is 11 days out of date.

Length 294 m; draft 11.6 m.

Type: Ship (hazmat cat B). MMSI: 355717000.

Date/timePositionNaut miles runAvg speedWind from/ knotsBaromVisibWave heightAir tempDewpointWater temp
2015-May-17 16:25N 33°24' E 128°21'4313.9
2015-May-17 13:18N 33°01' E 127°38'1013.8
2015-May-17 12:33N 32°56' E 127°27'1713.4
2015-May-17 11:18N 32°46' E 127°11'1012.9
2015-May-17 10:33N 32°41' E 127°01'1313.0
2015-May-17 09:32N 32°34' E 126°48'1313.1
2015-May-17 08:33N 32°27' E 126°35'2613.1
2015-May-17 06:33N 32°13' E 126°09'1413.8
2015-May-17 05:33N 32°06' E 125°55'1414.1
2015-May-17 04:34N 31°59' E 125°41'2914.6
2015-May-17 02:34N 31°43' E 125°12'2814.1
2015-May-17 00:33N 31°28' E 124°44'1313.0
2015-May-16 23:33N 31°21' E 124°31'1312.7
2015-May-16 22:33N 31°14' E 124°19'1312.4
2015-May-16 21:33N 31°07' E 124°06'1212.5
2015-May-16 20:33N 31°00' E 123°54'1312.8
2015-May-16 19:33N 30°54' E 123°42'1313.2
2015-May-16 18:33N 30°46' E 123°29'1413.5
2015-May-16 17:33N 30°39' E 123°16'1413.8
2015-May-16 16:33N 30°36' E 122°60'1414.1
2015-May-16 15:33N 30°35' E 122°44'1313.2
2015-May-16 14:33N 30°32' E 122°29'1111.2
2015-May-16 13:33N 30°33' E 122°16'9 9.2
2015-May-16 12:33N 30°36' E 122°06'1 0.0
2015-May-15 21:25N 30°36' E 122°05'1 1.0
2015-May-15 20:33N 30°36' E 122°06'8 7.7
2015-May-15 19:32N 30°34' E 122°15'6 5.7
2015-May-15 18:33N 30°33' E 122°21'8 7.9
2015-May-15 17:33N 30°31' E 122°30'12 0.6
2015-May-14 21:16N 30°28' E 122°43'4 5.3
2015-May-14 20:27N 30°24' E 122°47'1213.0
2015-May-14 19:33N 30°20' E 122°59'2311.2
2015-May-14 17:31N 29°57' E 122°59'1313.5
2015-May-14 16:33N 29°49' E 122°47'1313.2
2015-May-14 15:33N 29°41' E 122°35'1413.8
2015-May-14 14:33N 29°44' E 122°20'1110.7
2015-May-14 13:33N 29°50' E 122°09'9 8.9
2015-May-14 12:33N 29°46' E 122°00'0 0.0
2015-May-14 10:30N 29°46' E 122°00'0 0.0
2015-May-14 09:12N 29°46' E 122°00'0 0.0
2015-May-14 07:24N 29°46' E 122°00'0 0.0
2015-May-14 06:18N 29°46' E 122°00'0 0.0
2015-May-14 05:24N 29°46' E 122°00'0 0.0
2015-May-14 04:30N 29°46' E 122°00'0 0.0
2015-May-14 02:25N 29°46' E 122°00'1 1.6
2015-May-14 01:33N 29°47' E 122°01'9 9.0
2015-May-14 00:34N 29°50' E 122°11'1010.0
2015-May-13 23:33N 29°45' E 122°20'9 8.6
2015-May-13 22:33N 29°43' E 122°30'1616.4
2015-May-13 21:34N 29°43' E 122°49'1716.6
2015-May-13 20:33N 29°55' E 123°02'1918.7
2015-May-13 19:33N 30°08' E 123°18'2120.5
2015-May-13 18:31N 30°29' E 123°20'2020.6
2015-May-13 17:34N 30°49' E 123°19'2120.7
2015-May-13 16:34N 31°10' E 123°20'2320.9
2015-May-13 15:27N 31°33' E 123°20'1921.1
2015-May-13 14:33N 31°52' E 123°20'2120.9
2015-May-13 13:33N 32°13' E 123°20'2120.5
2015-May-13 12:32N 32°33' E 123°20'2020.3
2015-May-13 11:34N 32°53' E 123°19'18 8.8
2015-May-13 09:30N 33°12' E 123°20'1718.3
2015-May-13 08:34N 33°29' E 123°20'2121.4
2015-May-13 07:33N 33°50' E 123°19'2119.6
2015-May-13 06:31N 34°09' E 123°10'  
2015-May-09 23:33N 35°01' E 129°15'  
Track history (hours):
 
Tides and Currents Weather Stations Pressure Air Temp Water Temp Dewpoint Dewpoint Depression Visibility Wind Speed Wind Dir Waves Ship Positions

Nyk Deneb

Last reported at 2015-May-17 16:25 UTC. Time now 2015-May-28 18:05 UTC.
Position N 33°24' E 128°21'.
Warning: this ship's position is 11 days out of date.

Length 294 m; draft 11.6 m.

Type: Ship (hazmat cat B). MMSI: 355717000.

Date/timePositionNaut miles runAvg speedWind from/ knotsBaromVisibWave heightAir tempDewpointWater temp
2015-May-17 16:25N 33°24' E 128°21'4313.9
2015-May-17 13:18N 33°01' E 127°38'1013.8
2015-May-17 12:33N 32°56' E 127°27'1713.4
2015-May-17 11:18N 32°46' E 127°11'1012.9
2015-May-17 10:33N 32°41' E 127°01'1313.0
2015-May-17 09:32N 32°34' E 126°48'1313.1
2015-May-17 08:33N 32°27' E 126°35'2613.1
2015-May-17 06:33N 32°13' E 126°09'1413.8
2015-May-17 05:33N 32°06' E 125°55'1414.1
2015-May-17 04:34N 31°59' E 125°41'2914.6
2015-May-17 02:34N 31°43' E 125°12'2814.1
2015-May-17 00:33N 31°28' E 124°44'1313.0
2015-May-16 23:33N 31°21' E 124°31'1312.7
2015-May-16 22:33N 31°14' E 124°19'1312.4
2015-May-16 21:33N 31°07' E 124°06'1212.5
2015-May-16 20:33N 31°00' E 123°54'1312.8
2015-May-16 19:33N 30°54' E 123°42'1313.2
2015-May-16 18:33N 30°46' E 123°29'1413.5
2015-May-16 17:33N 30°39' E 123°16'1413.8
2015-May-16 16:33N 30°36' E 122°60'1414.1
2015-May-16 15:33N 30°35' E 122°44'1313.2
2015-May-16 14:33N 30°32' E 122°29'1111.2
2015-May-16 13:33N 30°33' E 122°16'9 9.2
2015-May-16 12:33N 30°36' E 122°06'1 0.0
2015-May-15 21:25N 30°36' E 122°05'1 1.0
2015-May-15 20:33N 30°36' E 122°06'8 7.7
2015-May-15 19:32N 30°34' E 122°15'6 5.7
2015-May-15 18:33N 30°33' E 122°21'8 7.9
2015-May-15 17:33N 30°31' E 122°30'12 0.6
2015-May-14 21:16N 30°28' E 122°43'4 5.3
2015-May-14 20:27N 30°24' E 122°47'1213.0
2015-May-14 19:33N 30°20' E 122°59'2311.2
2015-May-14 17:31N 29°57' E 122°59'1313.5
2015-May-14 16:33N 29°49' E 122°47'1313.2
2015-May-14 15:33N 29°41' E 122°35'1413.8
2015-May-14 14:33N 29°44' E 122°20'1110.7
2015-May-14 13:33N 29°50' E 122°09'9 8.9
2015-May-14 12:33N 29°46' E 122°00'0 0.0
2015-May-14 10:30N 29°46' E 122°00'0 0.0
2015-May-14 09:12N 29°46' E 122°00'0 0.0
2015-May-14 07:24N 29°46' E 122°00'0 0.0
2015-May-14 06:18N 29°46' E 122°00'0 0.0
2015-May-14 05:24N 29°46' E 122°00'0 0.0
2015-May-14 04:30N 29°46' E 122°00'0 0.0
2015-May-14 02:25N 29°46' E 122°00'1 1.6
2015-May-14 01:33N 29°47' E 122°01'9 9.0
2015-May-14 00:34N 29°50' E 122°11'1010.0
2015-May-13 23:33N 29°45' E 122°20'9 8.6
2015-May-13 22:33N 29°43' E 122°30'1616.4
2015-May-13 21:34N 29°43' E 122°49'1716.6
2015-May-13 20:33N 29°55' E 123°02'1918.7
2015-May-13 19:33N 30°08' E 123°18'2120.5
2015-May-13 18:31N 30°29' E 123°20'2020.6
2015-May-13 17:34N 30°49' E 123°19'2120.7
2015-May-13 16:34N 31°10' E 123°20'2320.9
2015-May-13 15:27N 31°33' E 123°20'1921.1
2015-May-13 14:33N 31°52' E 123°20'2120.9
2015-May-13 13:33N 32°13' E 123°20'2120.5
2015-May-13 12:32N 32°33' E 123°20'2020.3
2015-May-13 11:34N 32°53' E 123°19'18 8.8
2015-May-13 09:30N 33°12' E 123°20'1718.3
2015-May-13 08:34N 33°29' E 123°20'2121.4
2015-May-13 07:33N 33°50' E 123°19'2119.6
2015-May-13 06:31N 34°09' E 123°10'  
2015-May-09 23:33N 35°01' E 129°15'  

Dump ship's entire track history